createdAt,value
2019-01-16T00:00:33.061Z,91.50
2019-01-16T00:05:45.321Z,91.40
2019-01-16T00:09:58.725Z,91.20
2019-01-16T00:14:15.990Z,91.10
2019-01-16T00:20:35.121Z,91.00
2019-01-16T00:25:08.925Z,90.90
2019-01-16T00:29:22.515Z,91.10
2019-01-16T00:33:43.933Z,91.20
2019-01-16T00:37:56.326Z,91.20
2019-01-16T00:43:07.495Z,91.10
2019-01-16T00:47:24.934Z,91.30
2019-01-16T00:51:39.177Z,91.30
2019-01-16T00:55:52.527Z,91.30
2019-01-16T01:00:22.185Z,91.30
2019-01-16T01:05:33.233Z,91.30
2019-01-16T01:10:01.832Z,91.40
2019-01-16T01:14:24.362Z,91.40
2019-01-16T01:18:40.931Z,91.50
2019-01-16T01:22:52.938Z,91.40
2019-01-16T01:27:06.572Z,91.50
2019-01-16T01:31:24.969Z,91.80
2019-01-16T01:36:36.116Z,91.40
2019-01-16T01:42:53.877Z,91.50
2019-01-16T01:47:40.468Z,91.70
2019-01-16T01:51:53.921Z,91.90
2019-01-16T01:56:22.490Z,92.00
2019-01-16T02:00:37.872Z,91.80
2019-01-16T02:06:55.776Z,92.20
2019-01-16T02:11:13.151Z,91.80
2019-01-16T02:15:31.437Z,92.00
2019-01-16T02:19:43.794Z,91.90
2019-01-16T02:23:57.386Z,91.80
2019-01-16T02:28:25.938Z,91.70
2019-01-16T02:32:44.453Z,91.60
2019-01-16T02:37:12.018Z,91.60
2019-01-16T02:42:24.044Z,91.60
2019-01-16T02:46:38.273Z,91.20
2019-01-16T02:50:50.629Z,91.30
2019-01-16T02:55:04.237Z,91.20
2019-01-16T02:59:20.361Z,91.10
2019-01-16T03:03:33.620Z,91.00
2019-01-16T03:07:55.013Z,90.90
2019-01-16T03:12:08.629Z,90.70
2019-01-16T03:16:22.914Z,90.60
2019-01-16T03:20:38.290Z,90.60
2019-01-16T03:24:55.722Z,90.60
2019-01-16T03:29:20.123Z,90.40
2019-01-16T03:33:33.502Z,90.40
2019-01-16T03:38:17.180Z,90.30
2019-01-16T03:42:30.649Z,90.30
2019-01-16T03:46:46.077Z,90.30
2019-01-16T03:53:02.886Z,90.30
2019-01-16T03:57:48.603Z,90.30
2019-01-16T04:02:05.137Z,90.20
2019-01-16T04:06:21.531Z,90.30
2019-01-16T04:10:35.033Z,90.20
2019-01-16T04:14:48.373Z,90.00
2019-01-16T04:19:00.750Z,89.90
2019-01-16T04:23:14.365Z,89.50
2019-01-16T04:27:31.779Z,89.40
2019-01-16T04:33:49.682Z,89.30
2019-01-16T04:38:07.083Z,88.80
2019-01-16T04:42:19.565Z,89.20
2019-01-16T04:46:43.831Z,89.00
2019-01-16T04:50:59.120Z,88.70
2019-01-16T04:55:12.343Z,88.20
2019-01-16T04:59:25.949Z,87.40
2019-01-16T05:03:59.477Z,87.20
2019-01-16T05:08:15.913Z,87.10
2019-01-16T05:12:43.403Z,87.40
2019-01-16T05:17:03.735Z,86.70
2019-01-16T05:21:19.008Z,85.50
2019-01-16T05:25:32.288Z,85.90
2019-01-16T05:29:45.949Z,86.80
2019-01-16T05:36:02.116Z,85.50
2019-01-16T05:40:46.005Z,85.00
2019-01-16T05:45:29.637Z,85.60
2019-01-16T05:49:46.558Z,85.30
2019-01-16T05:54:30.947Z,85.00
2019-01-16T05:58:49.046Z,85.00
2019-01-16T06:03:01.457Z,85.40
2019-01-16T06:07:22.964Z,84.80
2019-01-16T06:11:41.443Z,84.80
2019-01-16T06:16:01.746Z,84.80
2019-01-16T06:20:15.392Z,83.80
2019-01-16T06:24:38.966Z,83.60
2019-01-16T06:28:52.480Z,84.00
2019-01-16T06:33:04.894Z,83.90
2019-01-16T06:37:19.354Z,84.00
2019-01-16T06:41:50.057Z,84.20
2019-01-16T06:46:05.225Z,84.00
2019-01-16T06:50:18.472Z,84.10
2019-01-16T06:54:31.870Z,83.70
2019-01-16T06:59:44.621Z,83.20
2019-01-16T07:03:58.085Z,84.20
2019-01-16T07:08:10.445Z,83.70
2019-01-16T07:12:26.890Z,83.60
2019-01-16T07:16:40.490Z,83.30
2019-01-16T07:20:54.073Z,83.80
2019-01-16T07:27:10.130Z,83.80
2019-01-16T07:31:23.383Z,83.90
2019-01-16T07:37:39.319Z,83.60
2019-01-16T07:42:01.657Z,83.70
2019-01-16T07:46:21.022Z,83.60
2019-01-16T07:50:34.561Z,83.50
2019-01-16T07:56:51.565Z,83.00
2019-01-16T08:01:04.693Z,83.40
2019-01-16T08:05:23.121Z,83.40
2019-01-16T08:09:44.656Z,82.20
2019-01-16T08:13:57.012Z,82.40
2019-01-16T08:18:09.374Z,82.30
2019-01-16T08:22:22.629Z,82.50
2019-01-16T08:26:47.771Z,81.70
2019-01-16T08:31:02.096Z,81.90
2019-01-16T08:35:20.689Z,82.10
2019-01-16T08:39:33.049Z,82.20
2019-01-16T08:43:46.669Z,82.20
2019-01-16T08:48:04.133Z,82.10
2019-01-16T08:52:21.448Z,82.10
2019-01-16T08:57:07.035Z,82.30
2019-01-16T09:01:20.533Z,82.30
2019-01-16T09:05:34.111Z,82.70
2019-01-16T09:09:48.517Z,82.70
2019-01-16T09:14:04.898Z,82.50
2019-01-16T09:18:18.021Z,82.80
2019-01-16T09:22:30.398Z,83.00
2019-01-16T09:26:43.550Z,82.50
2019-01-16T09:30:55.905Z,82.80
2019-01-16T09:35:09.762Z,82.90
2019-01-16T09:39:27.191Z,82.30
2019-01-16T09:43:43.498Z,82.50
2019-01-16T09:52:30.494Z,82.00
2019-01-16T09:57:44.337Z,82.20
2019-01-16T10:01:59.798Z,81.90
2019-01-16T10:06:13.946Z,82.10
2019-01-16T10:10:31.337Z,81.40
2019-01-16T10:14:59.990Z,80.30
2019-01-16T10:19:15.418Z,80.50
2019-01-16T10:23:28.833Z,80.60
2019-01-16T10:27:42.452Z,80.90
2019-01-16T10:31:56.061Z,81.00
2019-01-16T10:36:27.715Z,79.50
2019-01-16T10:40:43.139Z,78.80
2019-01-16T10:44:58.517Z,79.80
2019-01-16T10:49:15.993Z,79.70
2019-01-16T10:53:29.252Z,79.40
2019-01-16T10:57:44.668Z,79.10
2019-01-16T11:02:05.121Z,78.70
2019-01-16T11:07:16.118Z,78.50
2019-01-16T11:11:31.490Z,78.80
2019-01-16T11:15:45.117Z,78.80
2019-01-16T11:19:57.496Z,78.80
2019-01-16T11:24:10.977Z,78.40
2019-01-16T11:30:27.500Z,78.20
2019-01-16T11:34:41.010Z,77.80
2019-01-16T11:40:56.840Z,77.20
2019-01-16T11:45:14.250Z,76.90
2019-01-16T11:49:27.518Z,76.70
2019-01-16T11:55:43.592Z,76.90
2019-01-16T11:59:57.855Z,76.90
2019-01-16T12:04:10.240Z,77.70
2019-01-16T12:08:23.489Z,78.00
2019-01-16T12:12:35.966Z,76.90
2019-01-16T12:16:49.565Z,76.50
2019-01-16T12:21:03.139Z,76.60
2019-01-16T12:25:16.597Z,76.00
2019-01-16T12:29:29.973Z,75.40
2019-01-16T12:33:43.493Z,75.80
2019-01-16T12:38:03.672Z,75.40
2019-01-16T12:42:34.157Z,74.70
2019-01-16T12:47:01.612Z,74.80
2019-01-16T12:51:15.869Z,73.30
2019-01-16T12:55:35.341Z,73.50
2019-01-16T12:59:51.669Z,73.00
2019-01-16T13:04:04.938Z,72.50
2019-01-16T13:08:17.301Z,71.30
2019-01-16T13:12:35.544Z,71.60
2019-01-16T13:16:49.047Z,71.50
2019-01-16T13:21:03.190Z,71.20
2019-01-16T13:25:16.664Z,71.20
2019-01-16T13:29:45.229Z,71.40
2019-01-16T13:34:04.686Z,71.40
2019-01-16T13:38:19.047Z,71.00
2019-01-16T13:42:33.330Z,71.10
2019-01-16T13:46:50.640Z,71.00
2019-01-16T13:51:05.043Z,70.80
2019-01-16T13:55:18.597Z,70.70
2019-01-16T13:59:32.937Z,71.00
2019-01-16T14:04:16.751Z,70.70
2019-01-16T14:09:35.753Z,71.20
2019-01-16T14:13:51.191Z,71.90
2019-01-16T14:18:06.628Z,72.40
2019-01-16T14:22:20.188Z,72.90
2019-01-16T14:26:33.846Z,72.80
2019-01-16T14:31:03.324Z,72.80
2019-01-16T14:35:21.561Z,73.00
2019-01-16T14:39:34.821Z,73.10
2019-01-16T14:43:48.313Z,73.30
2019-01-16T14:48:03.631Z,73.80
2019-01-16T14:52:17.909Z,73.90
2019-01-16T14:56:43.291Z,74.20
2019-01-16T15:00:56.928Z,74.40
2019-01-16T15:05:13.789Z,74.90
2019-01-16T15:09:27.324Z,75.00
2019-01-16T15:13:41.772Z,75.30
2019-01-16T15:19:57.758Z,75.80
2019-01-16T15:24:16.179Z,76.30
2019-01-16T15:28:29.721Z,77.60
2019-01-16T15:32:43.401Z,76.90
2019-01-16T15:36:58.653Z,77.10
2019-01-16T15:41:15.068Z,77.20
2019-01-16T15:46:32.125Z,77.20
2019-01-16T15:52:51.673Z,77.50
2019-01-16T15:57:06.981Z,77.80
2019-01-16T16:02:18.056Z,78.80
2019-01-16T16:06:41.596Z,78.90
2019-01-16T16:10:55.253Z,79.30
2019-01-16T16:15:12.642Z,79.50
2019-01-16T16:19:26.196Z,79.60
2019-01-16T16:23:39.853Z,79.70
2019-01-16T16:27:55.228Z,80.00
2019-01-16T16:32:09.362Z,80.00
2019-01-16T16:36:21.724Z,80.00
2019-01-16T16:42:42.277Z,80.20
2019-01-16T16:47:00.776Z,80.40
2019-01-16T16:52:16.960Z,80.90
2019-01-16T16:57:00.606Z,80.90
2019-01-16T17:01:12.976Z,81.20
2019-01-16T17:05:41.425Z,81.50
2019-01-16T17:10:52.413Z,81.50
2019-01-16T17:17:10.730Z,81.60
2019-01-16T17:21:25.096Z,82.00
2019-01-16T17:25:56.593Z,82.70
2019-01-16T17:31:12.969Z,83.00
2019-01-16T17:36:24.232Z,82.90
2019-01-16T17:40:37.735Z,83.20
2019-01-16T17:44:51.350Z,83.50
2019-01-16T17:49:04.764Z,83.50
2019-01-16T17:54:15.892Z,83.50
2019-01-16T17:58:59.701Z,83.30
2019-01-16T18:03:17.077Z,83.50
2019-01-16T18:07:30.440Z,83.50
2019-01-16T18:12:50.778Z,83.30
2019-01-16T18:17:03.162Z,83.00
2019-01-16T18:21:25.538Z,83.10
2019-01-16T18:25:53.935Z,83.00
2019-01-16T18:30:07.495Z,82.80
2019-01-16T18:34:21.793Z,82.50
2019-01-16T18:38:36.226Z,82.50
2019-01-16T18:42:48.589Z,82.10
2019-01-16T18:47:02.933Z,82.10
2019-01-16T18:51:36.530Z,82.20
2019-01-16T18:55:59.830Z,82.20
2019-01-16T19:00:18.949Z,83.00
2019-01-16T19:04:32.502Z,82.00
2019-01-16T19:08:46.108Z,81.60
2019-01-16T19:12:59.784Z,81.70
2019-01-16T19:17:13.385Z,80.90
2019-01-16T19:21:26.648Z,81.30
2019-01-16T19:25:43.077Z,81.20
2019-01-16T19:30:27.641Z,81.00
2019-01-16T19:34:40.861Z,81.10
2019-01-16T19:38:56.301Z,81.00
2019-01-16T19:43:12.741Z,80.90
2019-01-16T19:47:31.173Z,80.90
2019-01-16T19:51:43.584Z,81.20
2019-01-16T19:55:59.038Z,80.40
2019-01-16T20:00:17.774Z,80.70
2019-01-16T20:04:33.228Z,81.10
2019-01-16T20:08:46.672Z,80.70
2019-01-16T20:13:00.050Z,80.30
2019-01-16T20:17:16.446Z,80.50
2019-01-16T20:21:30.729Z,80.70
2019-01-16T20:25:47.962Z,80.80
2019-01-16T20:30:00.330Z,80.90
2019-01-16T20:34:13.599Z,80.90
2019-01-16T20:39:29.857Z,80.60
2019-01-16T20:44:42.973Z,80.70
2019-01-16T20:49:01.444Z,81.00
2019-01-16T20:53:19.629Z,81.50
2019-01-16T20:57:45.184Z,81.30
2019-01-16T21:01:59.497Z,81.30
2019-01-16T21:06:11.861Z,81.00
2019-01-16T21:10:24.249Z,81.20
2019-01-16T21:14:37.508Z,81.20
2019-01-16T21:18:53.752Z,81.10
2019-01-16T21:23:07.270Z,81.30
2019-01-16T21:27:24.717Z,81.30
2019-01-16T21:31:41.094Z,81.10
2019-01-16T21:35:54.349Z,81.20
2019-01-16T21:40:12.832Z,81.30
2019-01-16T21:44:43.435Z,81.40
2019-01-16T21:49:56.306Z,81.60
2019-01-16T21:54:10.768Z,81.80
2019-01-16T21:58:27.069Z,82.00
2019-01-16T22:02:40.572Z,81.40
2019-01-16T22:06:57.807Z,81.90
2019-01-16T22:11:11.197Z,81.70
2019-01-16T22:17:28.752Z,82.10
2019-01-16T22:22:41.846Z,82.10
2019-01-16T22:28:57.197Z,82.60
2019-01-16T22:33:11.321Z,82.70
2019-01-16T22:37:23.696Z,83.30
2019-01-16T22:41:36.077Z,83.20
2019-01-16T22:45:53.420Z,83.20
2019-01-16T22:50:07.012Z,83.40
2019-01-16T22:54:34.369Z,83.60
2019-01-16T22:58:50.784Z,83.80
2019-01-16T23:03:06.039Z,84.40
2019-01-16T23:07:19.332Z,85.00
2019-01-16T23:13:35.493Z,85.40
2019-01-16T23:18:46.729Z,85.70
2019-01-16T23:22:59.117Z,87.00
2019-01-16T23:27:17.286Z,87.30
2019-01-16T23:31:32.426Z,87.50
2019-01-16T23:35:50.665Z,87.80
2019-01-16T23:40:08.040Z,88.20
2019-01-16T23:44:24.366Z,88.70
2019-01-16T23:48:37.597Z,89.10
2019-01-16T23:53:56.145Z,89.40
2019-01-16T23:58:06.161Z,89.90
